createdAt,value
2019-02-12T00:01:00.312Z,2.07
2019-02-12T00:03:29.585Z,2.33
2019-02-12T00:05:58.846Z,2.47
2019-02-12T00:08:28.163Z,3.83
2019-02-12T00:10:57.446Z,2.23
2019-02-12T00:13:26.705Z,2.67
2019-02-12T00:15:55.947Z,2.40
2019-02-12T00:18:28.196Z,1.60
2019-02-12T00:20:57.419Z,2.43
2019-02-12T00:23:26.722Z,2.13
2019-02-12T00:25:55.973Z,2.13
2019-02-12T00:28:25.221Z,2.23
2019-02-12T00:30:54.533Z,2.27
2019-02-12T00:33:23.831Z,2.00
2019-02-12T00:35:53.124Z,1.73
2019-02-12T00:38:22.386Z,2.13
2019-02-12T00:40:51.619Z,1.57
2019-02-12T00:43:20.934Z,1.87
2019-02-12T00:45:50.288Z,1.93
2019-02-12T00:48:19.542Z,1.43
2019-02-12T00:50:48.801Z,2.60
2019-02-12T00:53:18.073Z,1.47
2019-02-12T00:55:47.374Z,1.63
2019-02-12T00:58:37.746Z,1.83
2019-02-12T01:01:07.092Z,1.23
2019-02-12T01:03:36.403Z,1.60
2019-02-12T01:06:05.709Z,2.07
2019-02-12T01:08:35.026Z,2.13
2019-02-12T01:11:04.355Z,2.07
2019-02-12T01:13:33.748Z,1.33
2019-02-12T01:16:03.048Z,1.90
2019-02-12T01:18:32.312Z,1.50
2019-02-12T01:21:01.634Z,1.77
2019-02-12T01:23:31.418Z,2.80
2019-02-12T01:26:00.677Z,1.53
2019-02-12T01:28:30.091Z,1.50
2019-02-12T01:30:59.423Z,2.27
2019-02-12T01:33:28.728Z,1.43
2019-02-12T01:35:57.931Z,2.20
2019-02-12T01:38:27.246Z,1.70
2019-02-12T01:40:56.567Z,1.67
2019-02-12T01:43:25.875Z,1.87
2019-02-12T01:45:55.116Z,1.90
2019-02-12T01:48:24.386Z,1.60
2019-02-12T01:50:53.658Z,2.13
2019-02-12T01:53:22.925Z,1.50
2019-02-12T01:55:52.156Z,1.60
2019-02-12T01:58:21.395Z,1.43
2019-02-12T02:00:50.621Z,1.60
2019-02-12T02:03:19.863Z,2.10
2019-02-12T02:05:49.104Z,1.60
2019-02-12T02:08:18.327Z,1.50
2019-02-12T02:10:47.594Z,1.73
2019-02-12T02:13:16.786Z,2.10
2019-02-12T02:15:46.066Z,1.63
2019-02-12T02:18:15.265Z,1.30
2019-02-12T02:20:44.601Z,1.43
2019-02-12T02:23:14.006Z,1.30
2019-02-12T02:25:43.228Z,1.50
2019-02-12T02:28:12.469Z,1.33
2019-02-12T02:30:41.715Z,1.23
2019-02-12T02:33:10.966Z,1.10
2019-02-12T02:35:40.206Z,1.60
2019-02-12T02:38:09.422Z,1.17
2019-02-12T02:40:38.659Z,1.73
2019-02-12T02:43:07.855Z,1.07
2019-02-12T02:45:37.130Z,1.80
2019-02-12T02:48:06.316Z,2.10
2019-02-12T02:50:35.541Z,1.10
2019-02-12T02:53:04.763Z,1.40
2019-02-12T02:55:33.979Z,1.90
2019-02-12T02:58:03.188Z,1.37
2019-02-12T03:03:37.014Z,1.37
2019-02-12T03:06:51.156Z,1.30
2019-02-12T03:09:20.411Z,1.73
2019-02-12T03:11:49.618Z,1.57
2019-02-12T03:14:18.957Z,1.73
2019-02-12T03:16:48.161Z,1.93
2019-02-12T03:19:17.381Z,1.50
2019-02-12T03:21:46.633Z,1.60
2019-02-12T03:24:15.859Z,1.20
2019-02-12T03:26:45.096Z,1.20
2019-02-12T03:29:14.388Z,1.10
2019-02-12T03:31:43.634Z,1.00
2019-02-12T03:34:12.852Z,1.27
2019-02-12T03:36:42.093Z,1.20
2019-02-12T03:39:11.340Z,1.57
2019-02-12T03:41:40.649Z,1.53
2019-02-12T03:44:09.868Z,1.03
2019-02-12T03:46:39.098Z,1.20
2019-02-12T03:49:08.743Z,0.97
2019-02-12T03:51:38.030Z,1.30
2019-02-12T03:54:07.249Z,1.17
2019-02-12T03:56:36.489Z,1.20
2019-02-12T03:59:05.776Z,1.40
2019-02-12T04:01:35.035Z,1.27
2019-02-12T04:04:04.235Z,1.10
2019-02-12T04:06:33.458Z,1.40
2019-02-12T04:09:02.679Z,1.53
2019-02-12T04:11:31.926Z,1.50
2019-02-12T04:14:01.126Z,1.43
2019-02-12T04:16:30.336Z,2.23
2019-02-12T04:18:59.587Z,1.60
2019-02-12T04:21:28.844Z,2.47
2019-02-12T04:23:58.072Z,2.23
2019-02-12T04:26:27.290Z,1.50
2019-02-12T04:28:56.512Z,1.20
2019-02-12T04:31:25.795Z,1.10
2019-02-12T04:33:55.032Z,1.83
2019-02-12T04:36:24.281Z,1.53
2019-02-12T04:38:53.986Z,1.83
2019-02-12T04:41:23.383Z,1.77
2019-02-12T04:43:52.587Z,1.20
2019-02-12T04:46:21.923Z,1.90
2019-02-12T04:48:51.172Z,1.13
2019-02-12T04:51:20.443Z,1.43
2019-02-12T04:53:49.659Z,1.17
2019-02-12T04:56:18.881Z,1.50
2019-02-12T04:58:48.092Z,1.30
2019-02-12T05:01:17.337Z,1.20
2019-02-12T05:03:46.876Z,1.97
2019-02-12T05:06:16.117Z,1.47
2019-02-12T05:09:20.080Z,1.70
2019-02-12T05:12:00.546Z,1.33
2019-02-12T05:14:29.778Z,1.80
2019-02-12T05:16:58.993Z,1.27
2019-02-12T05:19:28.326Z,1.73
2019-02-12T05:21:57.582Z,2.13
2019-02-12T05:24:26.976Z,1.57
2019-02-12T05:26:56.169Z,1.30
2019-02-12T05:29:25.393Z,1.60
2019-02-12T05:31:54.668Z,1.37
2019-02-12T05:34:23.950Z,1.40
2019-02-12T05:36:53.184Z,1.77
2019-02-12T05:39:22.414Z,1.60
2019-02-12T05:41:51.635Z,1.40
2019-02-12T05:44:20.884Z,1.37
2019-02-12T05:46:50.139Z,1.20
2019-02-12T05:49:19.389Z,1.47
2019-02-12T05:51:48.602Z,1.50
2019-02-12T05:54:17.814Z,1.70
2019-02-12T05:56:47.060Z,1.47
2019-02-12T05:59:16.315Z,1.87
2019-02-12T06:01:45.544Z,1.40
2019-02-12T06:04:14.832Z,2.53
2019-02-12T06:06:44.068Z,1.73
2019-02-12T06:09:13.338Z,2.30
2019-02-12T06:11:42.589Z,2.30
2019-02-12T06:14:11.804Z,2.30
2019-02-12T06:16:41.163Z,1.97
2019-02-12T06:19:11.626Z,2.50
2019-02-12T06:21:40.935Z,1.97
2019-02-12T06:24:10.161Z,2.67
2019-02-12T06:26:39.408Z,1.97
2019-02-12T06:29:08.674Z,2.37
2019-02-12T06:31:37.922Z,2.73
2019-02-12T06:34:07.175Z,2.23
2019-02-12T06:36:36.400Z,2.63
2019-02-12T06:39:07.068Z,2.60
2019-02-12T06:41:36.447Z,2.30
2019-02-12T06:44:05.893Z,2.73
2019-02-12T06:46:35.170Z,2.30
2019-02-12T06:49:04.396Z,2.13
2019-02-12T06:51:36.607Z,2.13
2019-02-12T06:54:05.924Z,2.10
2019-02-12T06:56:35.168Z,3.43
2019-02-12T06:59:04.416Z,2.50
2019-02-12T07:01:33.643Z,2.73
2019-02-12T07:04:24.163Z,1.97
2019-02-12T07:07:40.677Z,2.17
2019-02-12T07:10:27.628Z,2.00
2019-02-12T07:13:17.263Z,2.83
2019-02-12T07:16:33.167Z,2.37
2019-02-12T07:19:49.246Z,1.70
2019-02-12T07:23:02.747Z,2.30
2019-02-12T07:26:03.858Z,2.97
2019-02-12T07:32:47.372Z,2.57
2019-02-12T07:36:03.808Z,2.03
2019-02-12T07:39:01.903Z,2.03
2019-02-12T07:41:50.634Z,2.30
2019-02-12T07:44:36.673Z,2.60
2019-02-12T07:47:41.102Z,2.17
2019-02-12T07:50:57.724Z,2.23
2019-02-12T07:53:49.105Z,2.27
2019-02-12T07:56:47.540Z,2.23
2019-02-12T07:59:31.768Z,1.93
2019-02-12T08:03:03.553Z,2.83
2019-02-12T08:06:00.088Z,2.40
2019-02-12T08:09:20.213Z,2.60
2019-02-12T08:12:20.411Z,2.77
2019-02-12T08:15:33.671Z,2.03
2019-02-12T08:18:12.138Z,2.20
2019-02-12T08:21:10.157Z,2.20
2019-02-12T08:24:21.259Z,2.57
2019-02-12T08:27:46.483Z,1.90
2019-02-12T08:30:56.802Z,2.87
2019-02-12T08:34:10.558Z,3.00
2019-02-12T08:37:11.983Z,2.57
2019-02-12T08:39:55.432Z,2.90
2019-02-12T08:42:43.674Z,3.10
2019-02-12T08:46:00.209Z,3.70
2019-02-12T08:48:55.401Z,2.83
2019-02-12T08:51:59.466Z,2.60
2019-02-12T08:55:05.684Z,2.10
2019-02-12T08:58:00.066Z,2.57
2019-02-12T09:01:11.859Z,3.17
2019-02-12T09:04:22.654Z,2.17
2019-02-12T09:10:54.727Z,2.40
2019-02-12T09:13:56.240Z,3.17
2019-02-12T09:17:09.610Z,2.50
2019-02-12T09:20:04.559Z,2.77
2019-02-12T09:23:29.577Z,2.67
2019-02-12T09:26:35.874Z,3.13
2019-02-12T09:29:25.181Z,2.77
2019-02-12T09:32:14.890Z,3.00
2019-02-12T09:35:02.984Z,2.40
2019-02-12T09:38:18.704Z,2.53
2019-02-12T09:41:12.233Z,2.63
2019-02-12T09:44:18.092Z,2.97
2019-02-12T09:47:08.141Z,2.90
2019-02-12T09:50:14.333Z,2.43
2019-02-12T09:53:15.874Z,3.27
2019-02-12T09:56:32.603Z,3.23
2019-02-12T09:59:19.654Z,2.63
2019-02-12T10:02:02.242Z,2.80
2019-02-12T10:05:03.583Z,3.20
2019-02-12T10:07:53.317Z,2.60
2019-02-12T10:10:53.049Z,2.87
2019-02-12T10:13:57.205Z,2.40
2019-02-12T10:16:57.772Z,3.17
2019-02-12T10:19:45.014Z,2.60
2019-02-12T10:22:42.105Z,3.27
2019-02-12T10:25:47.436Z,3.27
2019-02-12T10:28:48.541Z,2.70
2019-02-12T10:31:43.667Z,3.13
2019-02-12T10:34:12.985Z,3.93
2019-02-12T10:36:42.417Z,3.00
2019-02-12T10:39:13.307Z,3.90
2019-02-12T10:41:42.624Z,2.50
2019-02-12T10:44:11.878Z,4.23
2019-02-12T10:46:41.217Z,3.17
2019-02-12T10:49:10.441Z,3.23
2019-02-12T10:51:39.715Z,3.70
2019-02-12T10:54:08.974Z,3.53
2019-02-12T10:56:38.260Z,3.03
2019-02-12T10:59:07.538Z,2.90
2019-02-12T11:01:37.065Z,3.00
2019-02-12T11:04:07.095Z,3.07
2019-02-12T11:06:36.759Z,3.10
2019-02-12T11:09:06.882Z,2.27
2019-02-12T11:11:36.875Z,3.13
2019-02-12T11:14:09.878Z,3.30
2019-02-12T11:16:40.307Z,2.87
2019-02-12T11:19:09.859Z,3.03
2019-02-12T11:21:41.162Z,2.60
2019-02-12T11:24:10.820Z,2.90
2019-02-12T11:26:42.420Z,4.03
2019-02-12T11:29:12.166Z,4.83
2019-02-12T11:31:42.980Z,5.37
2019-02-12T11:34:13.951Z,5.10
2019-02-12T11:36:44.618Z,3.20
2019-02-12T11:39:14.012Z,3.27
2019-02-12T11:41:43.656Z,2.90
2019-02-12T11:44:13.453Z,2.53
2019-02-12T11:46:43.190Z,2.57
2019-02-12T11:49:12.693Z,2.40
2019-02-12T11:51:44.534Z,2.57
2019-02-12T11:54:14.329Z,2.53
2019-02-12T11:56:43.902Z,4.00
2019-02-12T11:59:13.245Z,3.00
2019-02-12T12:01:43.000Z,2.60
2019-02-12T12:04:12.939Z,3.67
2019-02-12T12:06:42.711Z,2.53
2019-02-12T12:09:12.287Z,3.33
2019-02-12T12:11:42.378Z,3.10
2019-02-12T12:14:16.555Z,4.20
2019-02-12T12:16:46.869Z,3.30
2019-02-12T12:19:16.689Z,4.10
2019-02-12T12:21:46.985Z,3.17
2019-02-12T12:24:17.176Z,3.40
2019-02-12T12:26:47.138Z,2.47
2019-02-12T12:29:17.157Z,2.53
2019-02-12T12:31:52.434Z,2.67
2019-02-12T12:34:22.929Z,2.93
2019-02-12T12:36:52.903Z,2.60
2019-02-12T12:39:22.678Z,2.90
2019-02-12T12:41:52.418Z,2.60
2019-02-12T12:44:21.943Z,2.70
2019-02-12T12:46:51.545Z,2.33
2019-02-12T12:49:21.098Z,2.97
2019-02-12T12:51:50.568Z,2.20
2019-02-12T12:54:19.903Z,2.43
2019-02-12T12:56:51.561Z,3.03
2019-02-12T12:59:21.577Z,3.17
2019-02-12T13:01:51.034Z,3.53
2019-02-12T13:04:21.116Z,2.57
2019-02-12T13:07:41.899Z,2.43
2019-02-12T13:10:13.884Z,2.70
2019-02-12T13:12:43.731Z,1.93
2019-02-12T13:15:13.653Z,2.17
2019-02-12T13:17:43.482Z,2.60
2019-02-12T13:20:14.318Z,2.47
2019-02-12T13:22:53.757Z,3.40
2019-02-12T13:25:23.801Z,3.00
2019-02-12T13:27:53.183Z,2.30
2019-02-12T13:30:22.668Z,2.97
2019-02-12T13:33:49.776Z,3.17
2019-02-12T13:36:19.409Z,2.30
2019-02-12T13:38:49.065Z,2.27
2019-02-12T13:41:19.960Z,1.90
2019-02-12T13:43:49.561Z,3.03
2019-02-12T13:46:19.591Z,2.70
2019-02-12T13:48:49.434Z,2.73
2019-02-12T13:51:19.663Z,2.50
2019-02-12T13:53:49.439Z,2.13
2019-02-12T13:56:19.420Z,2.63
2019-02-12T13:58:49.497Z,1.70
2019-02-12T14:01:19.352Z,2.33
2019-02-12T14:03:49.460Z,2.30
2019-02-12T14:06:19.043Z,2.10
2019-02-12T14:08:49.172Z,1.80
2019-02-12T14:11:18.987Z,1.87
2019-02-12T14:13:48.679Z,2.03
2019-02-12T14:16:18.180Z,1.83
2019-02-12T14:18:47.933Z,2.33
2019-02-12T14:21:17.383Z,1.63
2019-02-12T14:23:46.972Z,2.13
2019-02-12T14:26:18.806Z,2.73
2019-02-12T14:29:21.568Z,2.27
2019-02-12T14:31:53.219Z,2.50
2019-02-12T14:34:22.614Z,2.10
2019-02-12T14:36:52.007Z,1.90
2019-02-12T14:39:21.305Z,2.57
2019-02-12T14:41:50.541Z,2.10
2019-02-12T14:44:19.796Z,2.20
2019-02-12T14:46:49.158Z,1.70
2019-02-12T14:49:18.597Z,1.53
2019-02-12T14:51:47.880Z,1.83
2019-02-12T14:54:17.107Z,1.77
2019-02-12T14:56:46.530Z,2.23
2019-02-12T14:59:15.929Z,1.80
2019-02-12T15:01:45.312Z,1.83
2019-02-12T15:04:14.639Z,2.40
2019-02-12T15:09:48.179Z,1.80
2019-02-12T15:12:17.514Z,1.53
2019-02-12T15:14:46.932Z,2.67
2019-02-12T15:17:17.508Z,4.93
2019-02-12T15:19:46.765Z,7.50
2019-02-12T15:22:15.998Z,4.57
2019-02-12T15:24:45.467Z,2.43
2019-02-12T15:27:14.873Z,1.90
2019-02-12T15:29:44.585Z,2.20
2019-02-12T15:33:11.019Z,1.77
2019-02-12T15:35:40.346Z,1.67
2019-02-12T15:38:09.617Z,1.60
2019-02-12T15:40:38.900Z,2.23
2019-02-12T15:46:36.237Z,2.27
2019-02-12T15:49:05.536Z,4.20
2019-02-12T15:51:34.779Z,3.20
2019-02-12T15:54:59.141Z,2.07
2019-02-12T15:57:29.564Z,2.10
2019-02-12T15:59:58.919Z,2.90
2019-02-12T16:02:28.265Z,2.03
2019-02-12T16:04:57.606Z,2.37
2019-02-12T16:07:28.501Z,2.17
2019-02-12T16:09:57.896Z,2.27
2019-02-12T16:12:28.519Z,2.23
2019-02-12T16:14:59.750Z,2.33
2019-02-12T16:17:28.933Z,2.40
2019-02-12T16:20:00.894Z,2.47
2019-02-12T16:22:30.415Z,2.50
2019-02-12T16:25:00.023Z,5.70
2019-02-12T16:27:32.399Z,4.03
2019-02-12T16:30:02.837Z,3.07
2019-02-12T16:32:32.288Z,3.10
2019-02-12T16:35:03.628Z,3.43
2019-02-12T16:37:32.908Z,2.30
2019-02-12T16:40:02.230Z,2.37
2019-02-12T16:42:31.774Z,2.50
2019-02-12T16:45:04.560Z,3.60
2019-02-12T16:47:33.887Z,2.70
2019-02-12T16:50:03.262Z,2.37
2019-02-12T16:52:32.861Z,2.53
2019-02-12T16:55:02.087Z,2.40
2019-02-12T16:57:31.381Z,3.03
2019-02-12T17:00:00.728Z,2.93
2019-02-12T17:02:30.072Z,3.07
2019-02-12T17:04:59.425Z,4.70
2019-02-12T17:07:28.822Z,3.30
2019-02-12T17:10:06.316Z,4.13
2019-02-12T17:12:35.647Z,4.13
2019-02-12T17:15:05.067Z,2.73
2019-02-12T17:17:34.332Z,3.87
2019-02-12T17:23:38.141Z,20.23
2019-02-12T17:26:07.398Z,33.93
2019-02-12T17:29:10.070Z,4.90
2019-02-12T17:31:39.383Z,4.20
2019-02-12T17:34:08.764Z,4.07
2019-02-12T17:36:38.066Z,4.30
2019-02-12T17:39:07.720Z,4.17
2019-02-12T17:41:37.058Z,3.20
2019-02-12T17:44:06.287Z,3.83
2019-02-12T17:46:36.789Z,3.87
2019-02-12T17:49:08.005Z,3.43
2019-02-12T17:51:37.368Z,3.97
2019-02-12T17:54:07.251Z,4.60
2019-02-12T17:56:37.360Z,5.97
2019-02-12T17:59:07.839Z,4.90
2019-02-12T18:01:40.064Z,4.93
2019-02-12T18:04:09.389Z,4.90
2019-02-12T18:06:39.565Z,5.47
2019-02-12T18:09:09.765Z,4.67
2019-02-12T18:11:39.057Z,5.17
2019-02-12T18:14:08.301Z,5.47
2019-02-12T18:16:40.469Z,5.03
2019-02-12T18:19:09.864Z,5.57
2019-02-12T18:21:39.163Z,5.77
2019-02-12T18:24:08.503Z,5.93
2019-02-12T18:26:38.114Z,6.17
2019-02-12T18:29:58.693Z,5.63
2019-02-12T18:32:28.343Z,5.73
2019-02-12T18:34:57.620Z,6.63
2019-02-12T18:37:26.955Z,5.70
2019-02-12T18:40:26.301Z,6.00
2019-02-12T18:42:55.599Z,6.20
2019-02-12T18:45:25.370Z,6.50
2019-02-12T18:47:54.893Z,5.63
2019-02-12T18:50:24.574Z,6.00
2019-02-12T18:52:54.160Z,7.30
2019-02-12T18:55:23.504Z,7.20
2019-02-12T18:57:53.661Z,6.33
2019-02-12T19:00:23.898Z,7.00
2019-02-12T19:02:53.291Z,6.73
2019-02-12T19:05:22.889Z,7.43
2019-02-12T19:07:52.367Z,7.70
2019-02-12T19:10:21.822Z,7.80
2019-02-12T19:12:51.368Z,8.10
2019-02-12T19:15:20.787Z,8.40
2019-02-12T19:17:57.256Z,8.83
2019-02-12T19:20:26.780Z,8.10
2019-02-12T19:22:56.802Z,8.80
2019-02-12T19:25:26.308Z,9.10
2019-02-12T19:27:56.913Z,8.87
2019-02-12T19:30:27.113Z,9.23
2019-02-12T19:32:56.685Z,10.23
2019-02-12T19:35:26.566Z,10.10
2019-02-12T19:37:56.277Z,9.23
2019-02-12T19:40:26.480Z,11.23
2019-02-12T19:42:56.895Z,10.23
2019-02-12T19:45:27.327Z,10.97
2019-02-12T19:47:57.898Z,11.17
2019-02-12T19:50:28.541Z,11.40
2019-02-12T19:52:59.105Z,10.67
2019-02-12T19:55:29.863Z,10.97
2019-02-12T19:58:00.244Z,11.73
2019-02-12T20:00:30.722Z,10.87
2019-02-12T20:03:01.111Z,11.40
2019-02-12T20:05:31.355Z,10.63
2019-02-12T20:08:01.581Z,11.97
2019-02-12T20:10:32.065Z,12.23
2019-02-12T20:13:03.234Z,12.70
2019-02-12T20:15:33.118Z,12.57
2019-02-12T20:18:58.225Z,11.57
2019-02-12T20:21:28.805Z,12.37
2019-02-12T20:24:46.683Z,10.70
2019-02-12T20:27:17.897Z,12.60
2019-02-12T20:29:47.748Z,12.37
2019-02-12T20:32:17.751Z,13.43
2019-02-12T20:34:48.101Z,13.00
2019-02-12T20:37:18.207Z,12.63
2019-02-12T20:39:48.069Z,15.30
2019-02-12T20:42:17.637Z,13.23
2019-02-12T20:44:48.524Z,13.10
2019-02-12T20:47:18.170Z,11.77
2019-02-12T20:49:47.828Z,12.37
2019-02-12T20:52:17.281Z,13.77
2019-02-12T20:55:23.080Z,13.57
2019-02-12T20:57:52.423Z,14.17
2019-02-12T21:00:48.894Z,13.40
2019-02-12T21:03:18.516Z,14.07
2019-02-12T21:05:48.285Z,14.17
2019-02-12T21:08:20.535Z,14.57
2019-02-12T21:10:50.040Z,13.37
2019-02-12T21:13:19.570Z,13.57
2019-02-12T21:15:49.242Z,13.60
2019-02-12T21:18:18.799Z,14.30
2019-02-12T21:20:48.561Z,14.13
2019-02-12T21:23:18.136Z,14.07
2019-02-12T21:25:47.806Z,14.40
2019-02-12T21:28:20.610Z,14.73
2019-02-12T21:30:50.145Z,14.43
2019-02-12T21:33:19.870Z,14.20
2019-02-12T21:35:49.372Z,14.47
2019-02-12T21:38:20.333Z,14.63
2019-02-12T21:40:49.981Z,14.97
2019-02-12T21:43:22.520Z,15.20
2019-02-12T21:45:52.047Z,15.20
2019-02-12T21:48:21.421Z,14.67
2019-02-12T21:50:50.775Z,15.70
2019-02-12T21:53:20.053Z,15.87
2019-02-12T21:55:49.390Z,15.30
2019-02-12T21:58:18.704Z,15.83
2019-02-12T22:00:50.028Z,16.33
2019-02-12T22:03:19.055Z,15.77
2019-02-12T22:05:48.462Z,15.93
2019-02-12T22:08:17.805Z,16.63
2019-02-12T22:10:47.280Z,17.03
2019-02-12T22:13:18.591Z,16.73
2019-02-12T22:15:47.660Z,16.27
2019-02-12T22:18:17.040Z,17.07
2019-02-12T22:20:46.345Z,17.50
2019-02-12T22:23:15.683Z,17.27
2019-02-12T22:25:48.832Z,17.33
2019-02-12T22:28:18.263Z,17.67
2019-02-12T22:30:47.614Z,16.77
2019-02-12T22:33:17.015Z,17.23
2019-02-12T22:35:46.342Z,16.73
2019-02-12T22:38:15.713Z,18.33
2019-02-12T22:40:45.127Z,17.40
2019-02-12T22:43:14.785Z,17.53
2019-02-12T22:45:44.677Z,17.23
2019-02-12T22:48:14.147Z,17.13
2019-02-12T22:50:44.003Z,19.00
2019-02-12T22:53:13.651Z,17.63
2019-02-12T22:55:43.004Z,18.63
2019-02-12T22:58:12.359Z,19.33
2019-02-12T23:00:56.888Z,18.27
2019-02-12T23:03:26.659Z,19.07
2019-02-12T23:05:55.995Z,19.33
2019-02-12T23:08:25.398Z,19.20
2019-02-12T23:10:56.297Z,19.30
2019-02-12T23:13:25.585Z,20.13
2019-02-12T23:15:54.981Z,20.13
2019-02-12T23:18:24.261Z,19.57
2019-02-12T23:20:53.550Z,20.10
2019-02-12T23:23:22.916Z,20.17
2019-02-12T23:25:52.300Z,20.07
2019-02-12T23:28:21.546Z,20.40
2019-02-12T23:30:50.872Z,19.80
2019-02-12T23:33:20.147Z,21.00
2019-02-12T23:35:49.413Z,19.63
2019-02-12T23:38:18.707Z,19.20
2019-02-12T23:40:48.148Z,21.63
2019-02-12T23:43:17.423Z,22.00
2019-02-12T23:45:46.716Z,21.37
2019-02-12T23:48:16.086Z,20.53
2019-02-12T23:50:45.416Z,21.77
2019-02-12T23:53:14.653Z,21.00
2019-02-12T23:55:43.983Z,21.77
2019-02-12T23:58:13.240Z,20.80
